createdAt,value
2022-10-05T00:00:29.881Z,11.30
2022-10-05T00:03:00.038Z,11.20
2022-10-05T00:05:32.444Z,11.10
2022-10-05T00:08:13.176Z,11.10
2022-10-05T00:10:42.558Z,11.10
2022-10-05T00:13:15.807Z,11.00
2022-10-05T00:15:45.039Z,11.00
2022-10-05T00:18:19.571Z,11.00
2022-10-05T00:20:49.365Z,11.00
2022-10-05T00:23:21.308Z,11.10
2022-10-05T00:25:50.130Z,11.10
2022-10-05T00:28:22.256Z,11.00
2022-10-05T00:30:50.884Z,11.00
2022-10-05T00:33:20.969Z,11.10
2022-10-05T00:35:49.555Z,11.00
2022-10-05T00:38:18.205Z,11.00
2022-10-05T00:41:02.116Z,10.90
2022-10-05T00:43:58.833Z,10.90
2022-10-05T00:46:34.088Z,10.80
2022-10-05T00:49:13.551Z,10.90
2022-10-05T00:51:46.961Z,11.00
2022-10-05T00:54:25.280Z,11.10
2022-10-05T00:57:20.943Z,11.10
2022-10-05T01:00:00.709Z,11.10
2022-10-05T01:02:38.131Z,11.00
2022-10-05T01:05:14.549Z,11.10
2022-10-05T01:07:50.836Z,11.10
2022-10-05T01:10:27.930Z,11.10
2022-10-05T01:13:03.851Z,11.20
2022-10-05T01:15:37.901Z,11.20
2022-10-05T01:18:13.579Z,11.30
2022-10-05T01:20:53.572Z,11.20
2022-10-05T01:24:04.961Z,11.20
2022-10-05T01:27:04.703Z,11.10
2022-10-05T01:29:39.763Z,11.10
2022-10-05T01:32:17.293Z,11.10
2022-10-05T01:34:52.130Z,11.10
2022-10-05T01:37:27.881Z,11.10
2022-10-05T01:40:03.631Z,11.10
2022-10-05T01:42:41.622Z,11.00
2022-10-05T01:45:21.555Z,10.90
2022-10-05T01:47:52.964Z,10.80
2022-10-05T01:50:31.442Z,10.70
2022-10-05T01:53:09.341Z,10.60
2022-10-05T01:55:44.675Z,10.60
2022-10-05T01:58:23.277Z,10.50
2022-10-05T02:00:59.967Z,10.50
2022-10-05T02:03:33.212Z,10.50
2022-10-05T02:06:07.632Z,10.50
2022-10-05T02:08:41.018Z,10.50
2022-10-05T02:11:10.873Z,10.40
2022-10-05T02:13:44.233Z,10.30
2022-10-05T02:16:18.525Z,10.20
2022-10-05T02:18:52.156Z,10.20
2022-10-05T02:21:22.667Z,10.10
2022-10-05T02:23:55.603Z,10.20
2022-10-05T02:26:25.901Z,10.20
2022-10-05T02:29:00.008Z,10.20
2022-10-05T02:31:37.533Z,10.10
2022-10-05T02:34:25.368Z,10.10
2022-10-05T02:37:14.164Z,10.10
2022-10-05T02:39:54.439Z,10.20
2022-10-05T02:42:30.248Z,10.20
2022-10-05T02:45:10.789Z,10.10
2022-10-05T02:47:48.196Z,10.00
2022-10-05T02:50:27.313Z,10.10
2022-10-05T02:53:05.392Z,10.10
2022-10-05T02:55:39.324Z,10.10
2022-10-05T02:58:13.518Z,10.10
2022-10-05T03:00:47.727Z,10.10
2022-10-05T03:03:24.675Z,10.10
2022-10-05T03:05:59.865Z,10.20
2022-10-05T03:08:35.348Z,10.20
2022-10-05T03:11:12.600Z,10.20
2022-10-05T03:13:49.472Z,10.30
2022-10-05T03:16:41.299Z,10.30
2022-10-05T03:19:23.885Z,10.50
2022-10-05T03:22:02.991Z,10.50
2022-10-05T03:24:48.681Z,10.50
2022-10-05T03:27:28.835Z,10.50
2022-10-05T03:30:06.000Z,10.50
2022-10-05T03:32:48.430Z,10.50
2022-10-05T03:35:24.513Z,10.50
2022-10-05T03:38:02.211Z,10.60
2022-10-05T03:40:36.594Z,10.70
2022-10-05T03:43:23.217Z,10.70
2022-10-05T03:45:59.447Z,10.70
2022-10-05T03:48:32.183Z,10.70
2022-10-05T03:51:08.335Z,10.70
2022-10-05T03:53:44.796Z,10.80
2022-10-05T03:56:19.615Z,10.80
2022-10-05T03:58:54.184Z,10.90
2022-10-05T04:01:27.291Z,10.90
2022-10-05T04:03:59.815Z,10.80
2022-10-05T04:06:35.300Z,10.90
2022-10-05T04:09:11.552Z,10.90
2022-10-05T04:11:46.000Z,11.00
2022-10-05T04:14:19.116Z,11.10
2022-10-05T04:16:52.878Z,11.00
2022-10-05T04:19:24.832Z,10.90
2022-10-05T04:22:01.799Z,10.90
2022-10-05T04:24:36.331Z,10.80
2022-10-05T04:27:10.517Z,10.90
2022-10-05T04:29:43.423Z,10.90
2022-10-05T04:32:37.126Z,10.90
2022-10-05T04:35:34.655Z,11.00
2022-10-05T04:38:18.211Z,11.00
2022-10-05T04:41:04.566Z,11.00
2022-10-05T04:43:46.199Z,11.00
2022-10-05T04:46:25.290Z,11.00
2022-10-05T04:49:19.716Z,11.00
2022-10-05T04:51:54.781Z,11.00
2022-10-05T04:54:39.086Z,11.00
2022-10-05T04:57:12.881Z,11.00
2022-10-05T05:00:04.847Z,10.90
2022-10-05T05:02:51.923Z,10.80
2022-10-05T05:05:29.150Z,10.80
2022-10-05T05:08:10.699Z,10.80
2022-10-05T05:11:15.801Z,10.80
2022-10-05T05:14:08.552Z,10.80
2022-10-05T05:16:40.628Z,10.80
2022-10-05T05:19:34.823Z,10.90
2022-10-05T05:22:08.011Z,11.00
2022-10-05T05:24:52.456Z,11.00
2022-10-05T05:27:40.192Z,10.90
2022-10-05T05:30:17.985Z,10.90
2022-10-05T05:33:02.742Z,10.90
2022-10-05T05:36:07.109Z,10.90
2022-10-05T05:38:38.993Z,10.90
2022-10-05T05:41:13.169Z,11.00
2022-10-05T05:44:04.527Z,11.00
2022-10-05T05:47:02.179Z,11.00
2022-10-05T05:49:36.474Z,11.10
2022-10-05T05:52:12.240Z,11.20
2022-10-05T05:54:46.031Z,11.30
2022-10-05T05:57:18.233Z,11.40
2022-10-05T06:00:27.572Z,11.60
2022-10-05T06:03:08.299Z,11.50
2022-10-05T06:05:43.331Z,11.60
2022-10-05T06:08:19.708Z,11.60
2022-10-05T06:10:56.578Z,11.60
2022-10-05T06:13:30.111Z,11.60
2022-10-05T06:16:06.031Z,11.70
2022-10-05T06:18:35.741Z,11.70
2022-10-05T06:21:12.223Z,11.70
2022-10-05T06:23:47.416Z,11.70
2022-10-05T06:26:25.758Z,11.80
2022-10-05T06:29:01.044Z,11.90
2022-10-05T06:31:58.582Z,12.00
2022-10-05T06:34:54.879Z,12.10
2022-10-05T06:37:36.369Z,12.30
2022-10-05T06:40:12.792Z,12.40
2022-10-05T06:43:16.205Z,12.40
2022-10-05T06:46:11.736Z,12.60
2022-10-05T06:49:19.468Z,12.60
2022-10-05T06:52:01.072Z,12.70
2022-10-05T06:54:50.149Z,12.80
2022-10-05T06:57:53.479Z,12.80
2022-10-05T07:00:24.968Z,12.90
2022-10-05T07:03:04.088Z,12.90
2022-10-05T07:05:52.374Z,12.80
2022-10-05T07:08:38.156Z,12.90
2022-10-05T07:11:17.587Z,12.90
2022-10-05T07:14:13.312Z,12.90
2022-10-05T07:16:55.887Z,12.90
2022-10-05T07:19:34.556Z,13.00
2022-10-05T07:22:21.714Z,13.20
2022-10-05T07:24:58.759Z,13.20
2022-10-05T07:27:34.747Z,13.30
2022-10-05T07:30:06.821Z,13.30
2022-10-05T07:32:46.729Z,13.40
2022-10-05T07:35:38.971Z,13.60
2022-10-05T07:38:14.709Z,13.80
2022-10-05T07:40:50.928Z,14.10
2022-10-05T07:43:57.604Z,14.20
2022-10-05T07:46:28.278Z,14.30
2022-10-05T07:49:03.900Z,14.50
2022-10-05T07:51:38.166Z,14.60
2022-10-05T07:54:22.709Z,14.70
2022-10-05T07:57:19.768Z,14.60
2022-10-05T08:00:45.257Z,14.70
2022-10-05T08:03:22.209Z,14.80
2022-10-05T08:05:50.887Z,14.90
2022-10-05T08:08:26.252Z,14.90
2022-10-05T08:11:03.426Z,15.00
2022-10-05T08:13:37.509Z,15.10
2022-10-05T08:16:12.776Z,15.20
2022-10-05T08:18:56.616Z,15.30
2022-10-05T08:21:31.731Z,15.30
2022-10-05T08:24:07.886Z,15.30
2022-10-05T08:26:46.759Z,15.30
2022-10-05T08:29:22.593Z,15.40
2022-10-05T08:31:53.978Z,15.40
2022-10-05T08:34:32.442Z,15.40
2022-10-05T08:37:06.143Z,15.40
2022-10-05T08:39:40.288Z,15.50
2022-10-05T08:42:45.535Z,15.60
2022-10-05T08:45:59.299Z,15.40
2022-10-05T08:49:07.090Z,15.50
2022-10-05T08:52:05.967Z,15.70
2022-10-05T08:54:54.809Z,15.90
2022-10-05T08:57:49.370Z,16.10
2022-10-05T09:00:21.388Z,16.20
2022-10-05T09:03:36.393Z,16.20
2022-10-05T09:06:33.491Z,16.30
2022-10-05T09:09:32.258Z,16.30
2022-10-05T09:12:36.279Z,16.40
2022-10-05T09:15:25.710Z,16.40
2022-10-05T09:18:37.902Z,16.60
2022-10-05T09:21:21.773Z,16.70
2022-10-05T09:23:57.624Z,16.80
2022-10-05T09:26:47.918Z,16.80
2022-10-05T09:29:54.548Z,16.90
2022-10-05T09:33:17.112Z,16.60
2022-10-05T09:36:16.666Z,16.60
2022-10-05T09:39:15.514Z,16.80
2022-10-05T09:42:27.604Z,16.90
2022-10-05T09:45:40.206Z,16.90
2022-10-05T09:48:56.648Z,16.80
2022-10-05T09:52:01.143Z,16.80
2022-10-05T09:55:21.940Z,17.00
2022-10-05T09:58:30.521Z,17.00
2022-10-05T10:01:33.094Z,17.20
2022-10-05T10:04:26.022Z,17.30
2022-10-05T10:07:21.900Z,17.20
2022-10-05T10:10:11.923Z,17.20
2022-10-05T10:13:00.240Z,17.00
2022-10-05T10:16:02.297Z,16.80
2022-10-05T10:18:53.231Z,16.70
2022-10-05T10:21:43.451Z,16.60
2022-10-05T10:24:20.413Z,16.70
2022-10-05T10:27:24.323Z,16.60
2022-10-05T10:30:19.261Z,16.70
2022-10-05T10:33:21.352Z,16.80
2022-10-05T10:36:01.641Z,17.00
2022-10-05T10:38:41.645Z,17.10
2022-10-05T10:41:31.589Z,17.20
2022-10-05T10:44:38.468Z,17.20
2022-10-05T10:47:41.276Z,17.20
2022-10-05T10:50:38.388Z,17.20
2022-10-05T10:53:29.493Z,16.90
2022-10-05T10:56:16.227Z,17.10
2022-10-05T10:59:10.839Z,17.10
2022-10-05T11:01:53.106Z,17.40
2022-10-05T11:05:03.768Z,17.50
2022-10-05T11:07:55.267Z,17.50
2022-10-05T11:10:44.272Z,17.50
2022-10-05T11:13:38.145Z,17.70
2022-10-05T11:16:27.723Z,18.10
2022-10-05T11:19:40.169Z,18.50
2022-10-05T11:22:32.320Z,19.00
2022-10-05T11:25:35.050Z,19.30
2022-10-05T11:28:29.625Z,19.70
2022-10-05T11:31:19.878Z,20.00
2022-10-05T11:34:32.858Z,20.10
2022-10-05T11:37:34.083Z,20.20
2022-10-05T11:40:27.380Z,20.20
2022-10-05T11:43:43.787Z,20.20
2022-10-05T11:46:20.447Z,20.20
2022-10-05T11:49:02.330Z,20.20
2022-10-05T11:51:39.720Z,20.20
2022-10-05T11:54:26.543Z,20.30
2022-10-05T11:57:02.550Z,20.00
2022-10-05T11:59:36.730Z,19.80
2022-10-05T12:02:21.406Z,19.70
2022-10-05T12:04:59.594Z,19.60
2022-10-05T12:07:37.194Z,19.50
2022-10-05T12:10:22.745Z,19.60
2022-10-05T12:13:08.707Z,19.40
2022-10-05T12:15:44.940Z,19.50
2022-10-05T12:18:22.068Z,19.60
2022-10-05T12:20:57.479Z,19.80
2022-10-05T12:23:31.338Z,20.10
2022-10-05T12:26:04.021Z,20.20
2022-10-05T12:28:42.736Z,20.20
2022-10-05T12:31:26.610Z,20.30
2022-10-05T12:34:03.023Z,20.40
2022-10-05T12:37:02.525Z,20.40
2022-10-05T12:39:38.248Z,20.40
2022-10-05T12:42:21.490Z,20.20
2022-10-05T12:45:16.609Z,20.20
2022-10-05T12:47:59.191Z,20.30
2022-10-05T12:50:32.253Z,20.20
2022-10-05T12:53:26.709Z,20.30
2022-10-05T12:56:05.860Z,20.30
2022-10-05T12:58:48.337Z,20.30
2022-10-05T13:01:31.815Z,20.20
2022-10-05T13:04:08.544Z,20.40
2022-10-05T13:06:43.914Z,20.40
2022-10-05T13:09:18.502Z,20.40
2022-10-05T13:11:50.369Z,20.40
2022-10-05T13:14:44.375Z,20.50
2022-10-05T13:17:21.761Z,20.50
2022-10-05T13:19:55.499Z,20.40
2022-10-05T13:22:35.637Z,20.30
2022-10-05T13:25:30.728Z,20.30
2022-10-05T13:28:17.676Z,20.30
2022-10-05T13:30:54.902Z,20.40
2022-10-05T13:33:34.435Z,20.40
2022-10-05T13:36:12.873Z,20.50
2022-10-05T13:38:55.923Z,20.50
2022-10-05T13:41:34.806Z,20.70
2022-10-05T13:44:18.317Z,20.60
2022-10-05T13:46:50.626Z,20.50
2022-10-05T13:49:29.510Z,20.40
2022-10-05T13:52:07.725Z,20.50
2022-10-05T13:54:44.207Z,20.50
2022-10-05T13:57:24.269Z,20.50
2022-10-05T13:59:56.820Z,20.50
2022-10-05T14:02:31.163Z,20.50
2022-10-05T14:05:03.028Z,20.50
2022-10-05T14:07:38.468Z,20.40
2022-10-05T14:10:14.093Z,20.40
2022-10-05T14:12:45.896Z,20.30
2022-10-05T14:15:22.326Z,20.20
2022-10-05T14:17:52.842Z,20.10
2022-10-05T14:20:25.966Z,20.20
2022-10-05T14:22:58.721Z,20.10
2022-10-05T14:25:28.343Z,20.00
2022-10-05T14:28:02.008Z,19.90
2022-10-05T14:30:31.950Z,19.90
2022-10-05T14:33:33.202Z,19.70
2022-10-05T14:36:03.745Z,19.70
2022-10-05T14:38:35.834Z,19.60
2022-10-05T14:41:17.717Z,19.50
2022-10-05T14:43:56.101Z,19.50
2022-10-05T14:46:28.950Z,19.50
2022-10-05T14:49:20.534Z,19.40
2022-10-05T14:51:51.532Z,19.30
2022-10-05T14:54:42.072Z,19.20
2022-10-05T14:57:23.336Z,19.40
2022-10-05T15:00:05.204Z,19.30
2022-10-05T15:02:55.767Z,19.20
2022-10-05T15:05:31.537Z,19.20
2022-10-05T15:08:13.644Z,19.20
2022-10-05T15:10:49.925Z,19.30
2022-10-05T15:13:21.601Z,19.20
2022-10-05T15:15:54.777Z,19.10
2022-10-05T15:18:37.405Z,19.00
2022-10-05T15:21:45.653Z,19.00
2022-10-05T15:24:20.284Z,18.90
2022-10-05T15:26:51.816Z,18.90
2022-10-05T15:29:36.414Z,18.70
2022-10-05T15:32:14.809Z,18.70
2022-10-05T15:34:49.982Z,18.60
2022-10-05T15:37:27.110Z,18.60
2022-10-05T15:39:59.576Z,18.50
2022-10-05T15:42:36.706Z,18.50
2022-10-05T15:45:13.429Z,18.40
2022-10-05T15:47:49.195Z,18.30
2022-10-05T15:50:24.239Z,18.30
2022-10-05T15:52:57.759Z,18.20
2022-10-05T15:55:36.864Z,18.20
2022-10-05T15:58:31.356Z,18.20
2022-10-05T16:01:06.609Z,18.10
2022-10-05T16:03:51.653Z,17.90
2022-10-05T16:07:01.070Z,17.80
2022-10-05T16:09:58.278Z,17.80
2022-10-05T16:12:40.715Z,17.80
2022-10-05T16:15:28.551Z,17.70
2022-10-05T16:18:35.491Z,17.60
2022-10-05T16:21:11.058Z,17.50
2022-10-05T16:23:53.599Z,17.40
2022-10-05T16:26:39.770Z,17.40
2022-10-05T16:29:15.060Z,17.30
2022-10-05T16:31:50.222Z,17.20
2022-10-05T16:34:30.940Z,17.10
2022-10-05T16:37:04.322Z,17.10
2022-10-05T16:39:50.099Z,17.00
2022-10-05T16:42:30.015Z,16.90
2022-10-05T16:45:09.296Z,16.80
2022-10-05T16:47:46.970Z,16.70
2022-10-05T16:50:25.250Z,16.70
2022-10-05T16:53:00.100Z,16.70
2022-10-05T16:55:35.813Z,16.60
2022-10-05T16:58:12.096Z,16.40
2022-10-05T17:00:55.548Z,16.40
2022-10-05T17:03:34.248Z,16.40
2022-10-05T17:06:30.316Z,16.30
2022-10-05T17:09:20.431Z,16.20
2022-10-05T17:12:02.960Z,16.10
2022-10-05T17:14:40.860Z,16.10
2022-10-05T17:17:47.108Z,16.00
2022-10-05T17:20:42.243Z,16.00
2022-10-05T17:23:53.562Z,15.90
2022-10-05T17:26:45.287Z,15.90
2022-10-05T17:29:18.324Z,15.80
2022-10-05T17:32:09.651Z,15.80
2022-10-05T17:34:41.004Z,15.70
2022-10-05T17:37:35.694Z,15.60
2022-10-05T17:40:36.238Z,15.50
2022-10-05T17:43:24.093Z,15.40
2022-10-05T17:46:01.684Z,15.40
2022-10-05T17:49:09.179Z,15.40
2022-10-05T17:52:19.198Z,15.40
2022-10-05T17:55:30.162Z,15.30
2022-10-05T17:58:00.733Z,15.30
2022-10-05T18:00:40.407Z,15.20
2022-10-05T18:03:37.848Z,15.10
2022-10-05T18:06:33.402Z,15.10
2022-10-05T18:09:33.219Z,15.10
2022-10-05T18:12:26.927Z,15.10
2022-10-05T18:15:01.821Z,15.30
2022-10-05T18:17:45.654Z,15.30
2022-10-05T18:20:46.391Z,15.20
2022-10-05T18:30:06.549Z,15.30
2022-10-05T18:33:00.557Z,15.30
2022-10-05T18:35:38.105Z,15.20
2022-10-05T18:38:14.164Z,15.10
2022-10-05T18:41:32.853Z,15.00
2022-10-05T18:44:30.467Z,15.10
2022-10-05T18:47:07.056Z,15.00
2022-10-05T18:49:49.932Z,15.00
2022-10-05T18:52:25.561Z,15.00
2022-10-05T18:55:04.513Z,15.00
2022-10-05T18:58:03.056Z,15.00
2022-10-05T19:00:51.518Z,15.00
2022-10-05T19:03:27.194Z,15.00
2022-10-05T19:06:12.109Z,15.00
2022-10-05T19:08:49.846Z,14.90
2022-10-05T19:11:25.580Z,14.90
2022-10-05T19:14:04.737Z,14.90
2022-10-05T19:16:52.558Z,14.90
2022-10-05T19:19:36.152Z,15.00
2022-10-05T19:22:13.303Z,14.90
2022-10-05T19:24:50.733Z,14.90
2022-10-05T19:27:28.157Z,15.10
2022-10-05T19:30:15.600Z,15.00
2022-10-05T19:33:06.468Z,15.00
2022-10-05T19:35:46.253Z,15.00
2022-10-05T19:38:24.520Z,14.90
2022-10-05T19:41:01.551Z,14.90
2022-10-05T19:43:56.447Z,14.90
2022-10-05T19:46:39.360Z,14.80
2022-10-05T19:49:11.699Z,14.80
2022-10-05T19:51:50.130Z,14.80
2022-10-05T19:54:25.968Z,14.70
2022-10-05T19:56:55.795Z,14.80
2022-10-05T19:59:27.649Z,14.70
2022-10-05T20:01:58.000Z,14.70
2022-10-05T20:04:40.998Z,14.70
2022-10-05T20:07:14.114Z,14.70
2022-10-05T20:09:54.087Z,14.60
2022-10-05T20:12:23.851Z,14.50
2022-10-05T20:15:27.015Z,14.50
2022-10-05T20:18:12.947Z,14.50
2022-10-05T20:20:47.100Z,14.50
2022-10-05T20:23:22.677Z,14.40
2022-10-05T20:26:05.560Z,14.30
2022-10-05T20:28:34.438Z,14.30
2022-10-05T20:31:03.146Z,14.30
2022-10-05T20:33:31.743Z,14.40
2022-10-05T20:36:03.789Z,14.40
2022-10-05T20:38:40.630Z,14.40
2022-10-05T20:41:10.055Z,14.40
2022-10-05T20:43:39.513Z,14.40
2022-10-05T20:46:08.769Z,14.40
2022-10-05T20:48:37.355Z,14.40
2022-10-05T20:51:07.723Z,14.30
2022-10-05T20:53:36.226Z,14.40
2022-10-05T20:56:06.262Z,14.30
2022-10-05T20:58:34.867Z,14.40
2022-10-05T21:01:19.900Z,14.30
2022-10-05T21:03:52.652Z,14.30
2022-10-05T21:06:26.399Z,14.30
2022-10-05T21:08:56.054Z,14.30
2022-10-05T21:11:25.377Z,14.20
2022-10-05T21:13:54.585Z,14.20
2022-10-05T21:16:24.843Z,14.20
2022-10-05T21:18:53.727Z,14.20
2022-10-05T21:21:27.375Z,14.20
2022-10-05T21:23:55.947Z,14.10
2022-10-05T21:26:24.432Z,14.10
2022-10-05T21:28:52.902Z,14.20
2022-10-05T21:31:21.481Z,14.30
2022-10-05T21:33:50.017Z,14.40
2022-10-05T21:36:23.851Z,14.40
2022-10-05T21:38:56.021Z,14.30
2022-10-05T21:41:24.890Z,14.30
2022-10-05T21:43:53.512Z,14.40
2022-10-05T21:46:25.895Z,14.30
2022-10-05T21:48:56.105Z,14.30
2022-10-05T21:51:26.418Z,14.30
2022-10-05T21:54:01.821Z,14.30
2022-10-05T21:56:34.918Z,14.30
2022-10-05T21:59:05.862Z,14.20
2022-10-05T22:01:36.221Z,14.20
2022-10-05T22:04:05.490Z,14.30
2022-10-05T22:06:35.132Z,14.20
2022-10-05T22:09:06.315Z,14.20
2022-10-05T22:11:35.716Z,14.30
2022-10-05T22:14:04.389Z,14.30
2022-10-05T22:16:35.043Z,14.30
2022-10-05T22:19:08.747Z,14.30
2022-10-05T22:21:42.058Z,14.30
2022-10-05T22:24:13.655Z,14.40
2022-10-05T22:26:45.008Z,14.40
2022-10-05T22:29:15.191Z,14.30
2022-10-05T22:31:44.897Z,14.40
2022-10-05T22:34:14.157Z,14.30
2022-10-05T22:36:42.948Z,14.40
2022-10-05T22:39:12.934Z,14.50
2022-10-05T22:41:41.460Z,14.50
2022-10-05T22:44:10.073Z,14.50
2022-10-05T22:46:38.794Z,14.50
2022-10-05T22:49:07.293Z,14.40
2022-10-05T22:51:35.943Z,14.50
2022-10-05T22:54:04.575Z,14.50
2022-10-05T22:56:36.033Z,14.50
2022-10-05T22:59:08.424Z,14.60
2022-10-05T23:01:37.199Z,14.60
2022-10-05T23:04:08.001Z,14.60
2022-10-05T23:06:36.591Z,14.60
2022-10-05T23:09:05.577Z,14.70
2022-10-05T23:11:35.455Z,14.70
2022-10-05T23:14:04.014Z,14.70
2022-10-05T23:16:32.479Z,14.70
2022-10-05T23:19:01.133Z,14.70
2022-10-05T23:21:31.203Z,14.60
2022-10-05T23:23:59.770Z,14.60
2022-10-05T23:26:28.754Z,14.60
2022-10-05T23:28:58.619Z,14.60
2022-10-05T23:31:30.103Z,14.60
2022-10-05T23:33:58.702Z,14.60
2022-10-05T23:36:32.270Z,14.60
2022-10-05T23:39:01.220Z,14.70
2022-10-05T23:41:29.765Z,14.70
2022-10-05T23:43:59.935Z,14.70
2022-10-05T23:46:28.586Z,14.70
2022-10-05T23:48:57.117Z,14.70
2022-10-05T23:51:25.706Z,14.60
2022-10-05T23:53:54.281Z,14.60
2022-10-05T23:56:22.865Z,14.60
2022-10-05T23:58:51.815Z,14.60
